Time;durP1;ratioP1;P1;durP2;ratioP2;P2;SDS_P1;SDS_P2;PMS_P1;PMS_P2;Temp;Humidity;BMP_temperature;BMP_pressure;BME280_temperature;BME280_humidity;BME280_pressure;Samples;Min_cycle;Max_cycle;Signal;HPM_P1;HPM_P2
2020/12/25 00:00:41;;;;;;;6.85;3.08;;;3.80;94.10;;;;;;4974112;28;20042;-74
2020/12/25 00:03:27;;;;;;;7.13;3.08;;;3.80;94.40;;;;;;4958123;28;20043;-74
2020/12/25 00:06:14;;;;;;;8.55;3.25;;;3.70;94.20;;;;;;4964150;28;20031;-74
2020/12/25 00:09:00;;;;;;;7.53;3.20;;;3.70;94.40;;;;;;4953869;28;20031;-74
2020/12/25 00:11:46;;;;;;;6.85;3.55;;;3.70;94.40;;;;;;4973275;28;20045;-74
2020/12/25 00:14:32;;;;;;;9.88;2.97;;;3.70;94.30;;;;;;4975015;28;20045;-74
2020/12/25 00:17:18;;;;;;;10.25;3.30;;;3.70;94.60;;;;;;4974334;28;20514;-74
2020/12/25 00:20:05;;;;;;;7.82;3.10;;;3.70;94.40;;;;;;4973865;28;20023;-73
2020/12/25 00:22:51;;;;;;;10.02;3.42;;;3.80;94.50;;;;;;4975222;28;20038;-73
2020/12/25 00:25:37;;;;;;;7.97;3.88;;;3.80;94.50;;;;;;4970474;28;20050;-73
2020/12/25 00:28:23;;;;;;;10.30;3.88;;;3.80;94.50;;;;;;4959413;28;20113;-72
2020/12/25 00:31:09;;;;;;;4.78;2.70;;;3.80;94.50;;;;;;4957663;28;20035;-74
2020/12/25 00:34:00;;;;;;;9.00;3.28;;;3.80;94.30;;;;;;4959441;28;20054;-75
2020/12/25 00:36:46;;;;;;;9.85;3.30;;;3.80;94.50;;;;;;4959544;28;20034;-74
2020/12/25 00:39:32;;;;;;;9.38;2.85;;;3.80;94.50;;;;;;4957701;28;20031;-75
2020/12/25 00:42:18;;;;;;;7.90;3.72;;;3.70;94.60;;;;;;4955801;28;20031;-75
2020/12/25 00:45:04;;;;;;;7.00;3.33;;;3.70;94.40;;;;;;4973216;28;20066;-75
2020/12/25 00:47:50;;;;;;;7.93;3.30;;;3.70;94.20;;;;;;4958585;28;20027;-75
2020/12/25 00:50:38;;;;;;;7.45;3.10;;;3.70;94.70;;;;;;4961473;28;20179;-74
2020/12/25 00:53:24;;;;;;;9.48;2.97;;;3.70;94.70;;;;;;4958565;28;20033;-73
2020/12/25 00:56:11;;;;;;;6.43;3.20;;;3.60;94.40;;;;;;4959565;28;20034;-72
2020/12/25 00:58:57;;;;;;;7.55;2.90;;;3.70;94.60;;;;;;4969491;28;20470;-73
2020/12/25 01:01:43;;;;;;;9.52;3.22;;;3.70;94.30;;;;;;4956924;28;20049;-72
2020/12/25 01:04:29;;;;;;;5.50;2.75;;;3.70;94.30;;;;;;4957059;28;20038;-75
2020/12/25 01:07:15;;;;;;;5.45;2.53;;;3.60;94.10;;;;;;4956203;28;20026;-73
2020/12/25 01:10:01;;;;;;;7.85;3.45;;;3.60;94.10;;;;;;4972399;28;20046;-77
2020/12/25 01:12:47;;;;;;;9.90;3.58;;;3.60;94.60;;;;;;4976221;28;20042;-74
2020/12/25 01:15:13;;;;;;;8.98;3.42;;;3.60;94.60;;;;;;4954924;28;20026;-76
2020/12/25 01:17:39;;;;;;;8.07;3.13;;;3.60;94.70;;;;;;4939469;28;20138;-74
2020/12/25 01:20:04;;;;;;;8.57;2.65;;;3.60;94.50;;;;;;4952736;28;20118;-75
2020/12/25 01:22:30;;;;;;;8.25;2.38;;;3.60;94.40;;;;;;4970030;28;20114;-79
2020/12/25 01:24:56;;;;;;;8.43;2.95;;;3.60;94.30;;;;;;4955850;28;20493;-73
2020/12/25 01:27:21;;;;;;;8.57;2.53;;;3.50;94.40;;;;;;4955137;28;20058;-74
2020/12/25 01:29:47;;;;;;;5.57;2.50;;;3.50;94.50;;;;;;4939309;28;20026;-74
2020/12/25 01:32:13;;;;;;;9.48;2.60;;;3.50;94.40;;;;;;4943575;28;20058;-73
2020/12/25 01:34:38;;;;;;;7.50;2.83;;;3.50;94.10;;;;;;4956242;28;20023;-74
2020/12/25 01:37:04;;;;;;;10.45;2.60;;;3.50;94.50;;;;;;4954600;28;20419;-73
2020/12/25 01:39:30;;;;;;;6.43;2.45;;;3.50;94.40;;;;;;4954765;28;20474;-73
2020/12/25 01:41:55;;;;;;;6.82;2.95;;;3.50;94.30;;;;;;4973263;28;20066;-73
2020/12/25 01:44:21;;;;;;;7.63;2.58;;;3.50;94.20;;;;;;4954664;28;20026;-74
2020/12/25 01:46:47;;;;;;;8.90;2.70;;;3.40;94.00;;;;;;4954646;28;20068;-73
2020/12/25 01:49:12;;;;;;;6.80;3.03;;;3.40;94.40;;;;;;4939581;28;20030;-73
2020/12/25 01:51:38;;;;;;;11.85;2.42;;;3.40;94.30;;;;;;4955590;28;20054;-74
2020/12/25 01:54:04;;;;;;;8.40;3.13;;;3.40;93.90;;;;;;4954981;28;20379;-74
2020/12/25 01:56:31;;;;;;;7.03;2.72;;;3.30;94.10;;;;;;4938442;28;20030;-73
2020/12/25 01:58:56;;;;;;;11.30;3.35;;;3.30;94.10;;;;;;4938554;28;20030;-74
2020/12/25 02:01:22;;;;;;;6.22;2.15;;;3.30;94.00;;;;;;4954454;28;20110;-74
2020/12/25 02:03:48;;;;;;;10.93;2.97;;;3.20;94.20;;;;;;4952075;28;20023;-73
2020/12/25 02:06:14;;;;;;;6.60;2.35;;;3.20;94.20;;;;;;4970245;28;20114;-73
2020/12/25 02:08:39;;;;;;;10.50;3.00;;;3.20;94.30;;;;;;4956418;28;20918;-73
2020/12/25 02:11:06;;;;;;;7.22;2.85;;;3.20;94.20;;;;;;4958693;28;20082;-74
2020/12/25 02:13:32;;;;;;;6.28;2.53;;;3.10;94.40;;;;;;4957814;28;20031;-74
2020/12/25 02:15:58;;;;;;;6.10;2.50;;;3.10;93.90;;;;;;4994063;22;20038;-72
2020/12/25 02:18:32;;;;;;;9.13;2.28;;;3.00;94.20;;;;;;5022228;28;20076;-72
2020/12/25 02:21:02;;;;;;;7.97;2.85;;;3.10;94.00;;;;;;5023972;28;20029;-72
2020/12/25 02:23:28;;;;;;;4.87;2.50;;;3.10;94.00;;;;;;5021121;28;20027;-72
2020/12/25 02:25:53;;;;;;;6.93;3.17;;;3.00;94.20;;;;;;5008550;28;20025;-72
2020/12/25 02:28:19;;;;;;;8.88;2.45;;;3.00;93.80;;;;;;5036611;28;20029;-72
2020/12/25 02:30:45;;;;;;;11.48;2.80;;;2.90;94.00;;;;;;5033600;28;20017;-72
2020/12/25 02:33:10;;;;;;;10.68;2.40;;;2.90;93.70;;;;;;5013356;28;20033;-72
2020/12/25 02:35:36;;;;;;;5.90;2.55;;;2.90;93.90;;;;;;5030452;28;20052;-72
2020/12/25 02:38:02;;;;;;;6.55;2.63;;;2.90;94.20;;;;;;5024690;28;20029;-72
2020/12/25 02:40:27;;;;;;;10.40;2.60;;;2.90;94.10;;;;;;5031761;28;20022;-72
2020/12/25 02:42:53;;;;;;;5.65;2.60;;;2.80;94.30;;;;;;5013447;28;20033;-72
2020/12/25 02:45:18;;;;;;;7.30;2.03;;;2.80;94.10;;;;;;5030380;28;20021;-72
2020/12/25 02:47:44;;;;;;;6.95;2.25;;;2.80;94.50;;;;;;5029694;28;20587;-72
2020/12/25 02:50:10;;;;;;;8.43;2.75;;;2.70;94.20;;;;;;5029781;28;20060;-72
2020/12/25 02:52:35;;;;;;;4.25;2.38;;;2.70;93.80;;;;;;5029949;28;20034;-72
2020/12/25 02:55:01;;;;;;;10.57;2.60;;;2.70;94.40;;;;;;5029368;28;20053;-72
2020/12/25 02:57:27;;;;;;;11.02;2.67;;;2.60;94.20;;;;;;5029687;28;20380;-72
2020/12/25 02:59:53;;;;;;;7.03;2.30;;;2.60;94.60;;;;;;5025762;28;20025;-72
2020/12/25 03:02:18;;;;;;;9.32;2.67;;;2.60;93.90;;;;;;5024191;28;20041;-72
2020/12/25 03:04:45;;;;;;;6.25;1.95;;;2.50;94.10;;;;;;5025173;28;20452;-72
2020/12/25 03:07:11;;;;;;;6.10;2.17;;;2.50;93.80;;;;;;5024320;28;20056;-72
2020/12/25 03:09:37;;;;;;;7.68;2.00;;;2.50;94.30;;;;;;5009750;28;20033;-72
2020/12/25 03:12:03;;;;;;;11.68;1.90;;;2.50;94.30;;;;;;5006706;28;20038;-72
2020/12/25 03:14:29;;;;;;;4.68;2.03;;;2.50;94.10;;;;;;5027772;28;20029;-72
2020/12/25 03:16:54;;;;;;;6.50;2.13;;;2.50;94.20;;;;;;5007816;28;20037;-72
2020/12/25 03:19:20;;;;;;;8.75;2.00;;;2.50;94.20;;;;;;5025636;28;20388;-72
2020/12/25 03:21:46;;;;;;;11.13;2.33;;;2.40;94.30;;;;;;5025207;28;20428;-72
2020/12/25 03:24:11;;;;;;;4.35;1.77;;;2.40;94.30;;;;;;5025545;28;20105;-72
2020/12/25 03:26:37;;;;;;;7.55;1.70;;;2.40;94.30;;;;;;5023541;28;20108;-72
2020/12/25 03:29:03;;;;;;;6.18;2.13;;;2.40;94.40;;;;;;5025107;28;20037;-72
2020/12/25 03:31:29;;;;;;;4.95;1.50;;;2.40;94.40;;;;;;5024057;28;20568;-72
2020/12/25 03:33:55;;;;;;;5.63;1.60;;;2.40;94.30;;;;;;5008096;28;20043;-72
2020/12/25 03:36:21;;;;;;;6.25;2.15;;;2.40;94.40;;;;;;5024433;28;20522;-72
2020/12/25 03:38:47;;;;;;;8.20;1.55;;;2.40;94.30;;;;;;5027047;28;20037;-72
2020/12/25 03:41:13;;;;;;;7.95;1.58;;;2.40;94.00;;;;;;5023766;28;20033;-72
2020/12/25 03:43:38;;;;;;;10.60;2.10;;;2.40;94.00;;;;;;5021928;28;20299;-72
2020/12/25 03:46:04;;;;;;;7.20;1.73;;;2.40;94.00;;;;;;5025380;28;20072;-72
2020/12/25 03:48:29;;;;;;;4.55;1.58;;;2.30;94.00;;;;;;5024739;28;20048;-72
2020/12/25 03:50:56;;;;;;;11.45;2.08;;;2.40;93.90;;;;;;5024027;28;20021;-72
2020/12/25 03:53:22;;;;;;;10.75;1.92;;;2.40;94.30;;;;;;5008578;28;20436;-72
2020/12/25 03:55:48;;;;;;;9.40;1.50;;;2.30;93.60;;;;;;5025077;28;20033;-72
2020/12/25 03:58:13;;;;;;;11.65;2.10;;;2.30;94.00;;;;;;5023855;28;20503;-72
2020/12/25 04:00:39;;;;;;;7.00;1.70;;;2.30;94.30;;;;;;5024131;28;20572;-72
2020/12/25 04:03:04;;;;;;;10.32;1.95;;;2.20;94.30;;;;;;5023567;28;20041;-72
2020/12/25 04:05:30;;;;;;;6.72;1.98;;;2.20;94.10;;;;;;5022652;28;20033;-72
2020/12/25 04:07:56;;;;;;;12.05;2.10;;;2.20;94.20;;;;;;5023001;28;20036;-72
2020/12/25 04:10:21;;;;;;;5.47;1.73;;;2.20;94.40;;;;;;5023662;28;20489;-72
2020/12/25 04:12:47;;;;;;;5.07;2.03;;;2.20;93.60;;;;;;5024897;28;20484;-72
2020/12/25 04:15:12;;;;;;;10.70;2.05;;;2.20;93.90;;;;;;5006980;28;20083;-72
2020/12/25 04:17:38;;;;;;;6.82;2.17;;;2.20;94.40;;;;;;5024445;28;20087;-72
2020/12/25 04:20:04;;;;;;;8.25;2.83;;;2.10;94.60;;;;;;5012136;28;20033;-72
2020/12/25 04:22:29;;;;;;;9.18;1.85;;;2.10;94.30;;;;;;5024194;28;20021;-72
2020/12/25 04:24:55;;;;;;;6.65;2.45;;;2.20;94.10;;;;;;5026000;28;20087;-72
2020/12/25 04:27:21;;;;;;;6.95;2.30;;;2.10;94.00;;;;;;5023287;28;20040;-72
2020/12/25 04:29:46;;;;;;;5.70;1.83;;;2.10;94.20;;;;;;5023989;28;20021;-72
2020/12/25 04:32:12;;;;;;;9.77;2.10;;;2.00;93.90;;;;;;5006566;28;20034;-72
2020/12/25 04:34:38;;;;;;;5.75;2.05;;;2.00;94.30;;;;;;5026419;28;20041;-72
2020/12/25 04:37:04;;;;;;;9.88;2.20;;;2.00;94.40;;;;;;5004855;28;20029;-72
2020/12/25 04:39:29;;;;;;;7.20;2.35;;;2.00;93.80;;;;;;5025339;28;20033;-71
2020/12/25 04:41:56;;;;;;;8.65;2.00;;;2.00;94.20;;;;;;5026344;28;20047;-72
2020/12/25 04:44:22;;;;;;;3.80;1.60;;;2.00;94.40;;;;;;5018654;28;20108;-72
2020/12/25 04:46:51;;;;;;;6.70;1.88;;;2.00;94.10;;;;;;5021959;28;20109;-72
2020/12/25 04:49:18;;;;;;;9.95;2.03;;;2.00;94.00;;;;;;5023550;28;20096;-72
2020/12/25 04:51:43;;;;;;;10.23;1.98;;;1.90;94.00;;;;;;5007063;28;20033;-73
2020/12/25 04:54:09;;;;;;;6.63;1.83;;;1.90;93.80;;;;;;5023861;28;20037;-72
2020/12/25 04:56:35;;;;;;;6.20;2.17;;;1.90;93.30;;;;;;5024450;28;20029;-72
2020/12/25 04:59:00;;;;;;;4.35;1.60;;;1.90;94.20;;;;;;5008802;28;20382;-72
2020/12/25 05:01:26;;;;;;;4.55;1.73;;;1.90;93.90;;;;;;5021827;28;20033;-72
2020/12/25 05:03:52;;;;;;;6.53;2.13;;;1.90;94.20;;;;;;5025520;28;20475;-72
2020/12/25 05:06:18;;;;;;;9.02;2.15;;;1.80;93.80;;;;;;5025389;28;20079;-72
2020/12/25 05:08:46;;;;;;;8.75;2.00;;;1.90;93.70;;;;;;5028002;28;20109;-72
2020/12/25 05:11:15;;;;;;;7.15;1.55;;;1.80;93.60;;;;;;5023503;28;20115;-72
2020/12/25 05:13:51;;;;;;;8.25;1.98;;;1.80;93.40;;;;;;5028068;28;20026;-72
2020/12/25 05:16:19;;;;;;;4.75;1.88;;;1.80;93.80;;;;;;5024193;28;20049;-72
2020/12/25 05:18:47;;;;;;;7.57;2.15;;;1.70;93.10;;;;;;5028942;28;20037;-72
2020/12/25 05:21:14;;;;;;;8.02;1.65;;;1.70;93.50;;;;;;5026298;28;20018;-72
2020/12/25 05:23:41;;;;;;;8.95;2.83;;;1.70;93.30;;;;;;5010979;28;20501;-72
2020/12/25 05:26:08;;;;;;;7.35;2.00;;;1.70;93.70;;;;;;5027485;28;20029;-72
2020/12/25 05:28:38;;;;;;;7.72;1.85;;;1.70;94.00;;;;;;5040492;28;20021;-72
2020/12/25 05:31:05;;;;;;;4.75;1.70;;;1.70;93.90;;;;;;5025556;28;20033;-72
2020/12/25 05:33:32;;;;;;;7.18;1.80;;;1.70;94.40;;;;;;5010782;28;20036;-71
2020/12/25 05:35:58;;;;;;;11.75;2.20;;;1.60;94.20;;;;;;5025488;28;20485;-72
2020/12/25 05:38:27;;;;;;;5.13;2.33;;;1.60;94.20;;;;;;5026851;28;20026;-72
2020/12/25 05:40:54;;;;;;;6.55;1.85;;;1.60;94.10;;;;;;5025427;28;20028;-72
2020/12/25 05:43:20;;;;;;;6.38;1.65;;;1.60;93.50;;;;;;5029142;28;20037;-72
2020/12/25 05:45:46;;;;;;;5.43;1.90;;;1.60;93.90;;;;;;5029582;28;20029;-72
2020/12/25 05:48:12;;;;;;;6.20;1.85;;;1.60;94.00;;;;;;5032624;28;20404;-72
2020/12/25 05:50:39;;;;;;;5.35;1.83;;;1.50;94.10;;;;;;5031729;28;20017;-72
2020/12/25 05:53:05;;;;;;;4.47;1.83;;;1.50;94.00;;;;;;5032003;28;20022;-72
2020/12/25 05:55:31;;;;;;;7.32;1.83;;;1.50;94.10;;;;;;5014689;28;20017;-72
2020/12/25 05:57:57;;;;;;;6.43;1.75;;;1.50;94.30;;;;;;5031085;28;20033;-72
2020/12/25 06:00:25;;;;;;;6.57;1.75;;;1.50;93.90;;;;;;5029452;28;20021;-72
2020/12/25 06:02:55;;;;;;;6.50;1.55;;;1.50;94.20;;;;;;5012906;28;20017;-72
2020/12/25 06:05:23;;;;;;;6.25;1.80;;;1.50;94.10;;;;;;5027872;28;20032;-72
2020/12/25 06:07:58;;;;;;;9.43;2.10;;;1.50;94.10;;;;;;5013723;28;20036;-72
2020/12/25 06:10:25;;;;;;;6.07;1.73;;;1.50;94.10;;;;;;5030497;28;20027;-72
2020/12/25 06:12:55;;;;;;;7.38;2.00;;;1.50;93.80;;;;;;5028739;28;20026;-72
2020/12/25 06:15:30;;;;;;;9.73;1.75;;;1.40;93.90;;;;;;5031020;28;20055;-72
2020/12/25 06:18:16;;;;;;;4.57;1.52;;;1.50;94.10;;;;;;5030493;28;20040;-72
2020/12/25 06:20:53;;;;;;;4.85;1.58;;;1.40;94.10;;;;;;5031214;28;20029;-72
2020/12/25 06:23:21;;;;;;;7.47;2.15;;;1.40;93.80;;;;;;5026668;28;20030;-72
2020/12/25 06:25:50;;;;;;;7.38;1.63;;;1.40;93.70;;;;;;5030293;28;20336;-72
2020/12/25 06:28:18;;;;;;;5.30;1.73;;;1.40;93.70;;;;;;5028732;28;20109;-72
2020/12/25 06:30:44;;;;;;;6.82;1.90;;;1.40;93.90;;;;;;5030554;28;20091;-72
2020/12/25 06:33:10;;;;;;;6.20;1.60;;;1.40;94.20;;;;;;4998280;28;20497;-72
2020/12/25 06:35:39;;;;;;;5.47;1.60;;;1.40;94.10;;;;;;5029483;28;20053;-72
2020/12/25 06:38:08;;;;;;;8.35;3.05;;;1.30;93.90;;;;;;5026567;28;20710;-72
2020/12/25 06:40:34;;;;;;;6.38;1.70;;;1.40;94.00;;;;;;5009683;28;20032;-73
2020/12/25 06:43:00;;;;;;;6.25;1.60;;;1.60;96.40;;;;;;5026919;28;20503;-72
2020/12/25 06:45:32;;;;;;;7.00;1.80;;;1.90;95.20;;;;;;5027752;28;20037;-73
2020/12/25 06:48:31;;;;;;;7.15;1.75;;;1.90;92.90;;;;;;5026490;28;20017;-72
2020/12/25 06:50:58;;;;;;;6.38;1.95;;;1.80;93.20;;;;;;4994212;28;20033;-72
2020/12/25 06:53:34;;;;;;;4.75;1.48;;;1.80;93.30;;;;;;5026014;28;20415;-73
2020/12/25 06:56:17;;;;;;;4.40;1.17;;;1.70;93.40;;;;;;5025011;28;20029;-72
2020/12/25 06:58:47;;;;;;;6.95;1.48;;;1.70;93.40;;;;;;5020251;28;20152;-72
2020/12/25 07:01:15;;;;;;;7.07;1.50;;;1.60;93.50;;;;;;5008290;28;20044;-72
2020/12/25 07:03:41;;;;;;;6.55;1.50;;;1.60;93.20;;;;;;5025858;28;20836;-72
2020/12/25 07:06:12;;;;;;;3.22;1.30;;;1.60;93.40;;;;;;5026491;28;20116;-72
2020/12/25 07:08:44;;;;;;;4.30;1.13;;;1.50;93.30;;;;;;5026046;28;20413;-72
2020/12/25 07:11:11;;;;;;;7.82;1.33;;;1.50;93.80;;;;;;5024933;28;20033;-74
2020/12/25 07:13:38;;;;;;;10.90;3.40;;;1.50;93.80;;;;;;5025791;28;20041;-72
2020/12/25 07:16:05;;;;;;;5.72;2.10;;;1.40;93.50;;;;;;5008971;28;20033;-72
2020/12/25 07:18:31;;;;;;;7.68;1.73;;;1.40;93.40;;;;;;5010680;28;20056;-72
2020/12/25 07:20:58;;;;;;;9.60;1.55;;;1.30;93.50;;;;;;5028964;28;20068;-72
2020/12/25 07:23:25;;;;;;;7.32;1.60;;;1.30;93.30;;;;;;5009790;28;20025;-74
2020/12/25 07:25:52;;;;;;;5.63;1.33;;;1.20;93.40;;;;;;5029986;28;20053;-72
2020/12/25 07:28:22;;;;;;;7.03;1.58;;;1.20;93.80;;;;;;5027756;28;20539;-71
2020/12/25 07:30:48;;;;;;;4.03;1.40;;;1.20;93.30;;;;;;5023659;28;20399;-71
2020/12/25 07:33:13;;;;;;;5.15;1.30;;;1.20;93.20;;;;;;5024827;28;20025;-71
2020/12/25 07:35:41;;;;;;;6.28;1.70;;;1.20;93.50;;;;;;5010496;28;20501;-70
2020/12/25 07:38:07;;;;;;;5.40;1.35;;;1.20;93.70;;;;;;5029681;28;20125;-71
2020/12/25 07:40:34;;;;;;;4.97;1.20;;;1.20;93.10;;;;;;5030343;28;20104;-71
2020/12/25 07:43:18;;;;;;;3.42;1.38;;;1.20;93.40;;;;;;5028579;28;20040;-71
2020/12/25 07:46:11;;;;;;;8.05;1.52;;;1.20;93.60;;;;;;5026352;28;20112;-69
2020/12/25 07:49:01;;;;;;;5.07;1.42;;;1.20;93.50;;;;;;5026872;28;20033;-71
2020/12/25 07:51:49;;;;;;;4.60;1.40;;;1.20;93.00;;;;;;5028481;28;20040;-72
2020/12/25 07:54:35;;;;;;;3.90;1.20;;;1.20;93.30;;;;;;5024257;28;20025;-71
2020/12/25 07:57:22;;;;;;;6.25;1.30;;;1.20;93.30;;;;;;5024739;28;20673;-71
2020/12/25 08:00:08;;;;;;;3.75;1.27;;;1.20;93.30;;;;;;5024750;28;20171;-70
2020/12/25 08:02:54;;;;;;;9.45;1.55;;;1.20;93.50;;;;;;5031061;28;20140;-73
2020/12/25 08:05:20;;;;;;;7.43;1.65;;;1.20;93.10;;;;;;5023265;28;20056;-74
2020/12/25 08:07:47;;;;;;;10.88;2.33;;;1.20;93.10;;;;;;5026838;28;20076;-75
2020/12/25 08:10:17;;;;;;;7.00;1.20;;;1.20;93.50;;;;;;5029320;28;20018;-74
2020/12/25 08:12:55;;;;;;;7.13;1.35;;;1.20;93.60;;;;;;5020884;28;20030;-71
2020/12/25 08:15:21;;;;;;;5.50;1.10;;;1.20;93.40;;;;;;5027718;28;20091;-72
2020/12/25 08:18:01;;;;;;;4.88;1.00;;;1.20;93.30;;;;;;5023128;28;20037;-71
2020/12/25 08:20:27;;;;;;;5.63;1.23;;;1.20;93.00;;;;;;5023036;28;20029;-75
2020/12/25 08:23:03;;;;;;;6.70;1.83;;;1.20;92.80;;;;;;5033806;28;20036;-72
2020/12/25 08:25:30;;;;;;;9.07;1.83;;;1.30;93.00;;;;;;5025563;28;20113;-72
2020/12/25 08:27:57;;;;;;;4.60;1.65;;;1.30;93.40;;;;;;5025843;28;20090;-73
2020/12/25 08:30:24;;;;;;;3.22;1.25;;;1.30;93.00;;;;;;5022070;28;20028;-72
2020/12/25 08:32:58;;;;;;;8.30;1.88;;;1.30;93.20;;;;;;5008496;28;20564;-73
2020/12/25 08:35:27;;;;;;;6.00;1.83;;;1.30;93.30;;;;;;5008443;28;20036;-73
2020/12/25 08:37:54;;;;;;;3.90;1.10;;;1.30;93.10;;;;;;5027239;28;20185;-71
2020/12/25 08:40:22;;;;;;;6.68;1.60;;;1.40;92.90;;;;;;5026541;28;20124;-73
2020/12/25 08:42:49;;;;;;;4.78;1.92;;;1.30;93.00;;;;;;5028131;28;20513;-72
2020/12/25 08:45:20;;;;;;;5.13;1.70;;;1.40;93.70;;;;;;5028585;28;20104;-73
2020/12/25 08:48:09;;;;;;;7.38;1.90;;;1.50;93.40;;;;;;5011960;28;20021;-72
2020/12/25 08:50:34;;;;;;;11.25;2.35;;;1.50;93.30;;;;;;5024819;28;20017;-72
2020/12/25 08:53:21;;;;;;;5.93;2.03;;;1.50;92.70;;;;;;5009502;28;20104;-72
2020/12/25 08:55:48;;;;;;;4.93;1.60;;;1.50;93.00;;;;;;5026490;28;20109;-71
2020/12/25 08:58:20;;;;;;;5.65;1.52;;;1.40;92.60;;;;;;5023222;28;20033;-72
2020/12/25 09:00:59;;;;;;;4.95;1.40;;;1.40;92.80;;;;;;5025742;28;20373;-73
2020/12/25 09:03:44;;;;;;;8.32;1.77;;;1.40;92.90;;;;;;5026512;28;20029;-72
2020/12/25 09:06:10;;;;;;;4.25;1.77;;;1.40;93.00;;;;;;5026348;28;20025;-74
2020/12/25 09:08:37;;;;;;;6.65;2.25;;;1.50;92.80;;;;;;5026734;28;20044;-74
2020/12/25 09:11:14;;;;;;;5.38;1.70;;;1.50;92.60;;;;;;5022884;28;20029;-72
2020/12/25 09:13:40;;;;;;;7.75;1.80;;;1.50;92.70;;;;;;5025241;28;20033;-72
2020/12/25 09:16:07;;;;;;;3.92;1.90;;;1.50;92.80;;;;;;5027141;28;20032;-75
2020/12/25 09:18:34;;;;;;;5.00;1.88;;;1.50;92.60;;;;;;5026758;28;20021;-71
2020/12/25 09:21:00;;;;;;;7.07;1.70;;;1.50;92.60;;;;;;5027191;28;20044;-71
2020/12/25 09:23:30;;;;;;;5.78;1.50;;;1.60;92.90;;;;;;5026374;28;20025;-72
2020/12/25 09:25:56;;;;;;;7.47;2.00;;;1.60;92.60;;;;;;5028182;28;20108;-73
2020/12/25 09:28:25;;;;;;;8.70;1.83;;;1.60;93.00;;;;;;5008645;28;20022;-72
2020/12/25 09:30:54;;;;;;;7.85;2.00;;;1.60;92.70;;;;;;5025402;28;20025;-74
2020/12/25 09:33:21;;;;;;;4.03;1.60;;;1.60;92.50;;;;;;5022066;28;20033;-72
2020/12/25 09:35:47;;;;;;;4.15;1.38;;;1.60;92.50;;;;;;5011225;28;20370;-72
2020/12/25 09:38:13;;;;;;;4.95;1.52;;;1.60;92.60;;;;;;5029665;28;20068;-75
2020/12/25 09:40:38;;;;;;;4.95;1.95;;;1.60;92.80;;;;;;5028646;28;20053;-74
2020/12/25 09:43:04;;;;;;;6.07;1.67;;;1.80;95.10;;;;;;5007222;28;20083;-73
2020/12/25 09:45:30;;;;;;;5.63;1.70;;;1.90;93.30;;;;;;5021072;28;20022;-74
2020/12/25 09:47:56;;;;;;;9.23;2.42;;;2.00;92.90;;;;;;5008991;28;20029;-74
2020/12/25 09:50:21;;;;;;;5.47;1.50;;;1.90;92.10;;;;;;5009688;28;20052;-74
2020/12/25 09:52:47;;;;;;;4.38;1.55;;;1.90;91.90;;;;;;5022710;28;20030;-74
2020/12/25 09:55:13;;;;;;;5.35;1.50;;;1.80;91.60;;;;;;5026767;28;20535;-74
2020/12/25 09:57:39;;;;;;;2.33;1.52;;;1.80;91.40;;;;;;5026871;28;20524;-74
2020/12/25 10:00:09;;;;;;;9.93;2.03;;;1.80;91.90;;;;;;5023615;28;20405;-73
2020/12/25 10:02:35;;;;;;;6.25;1.73;;;1.80;91.40;;;;;;5018717;28;20113;-73
2020/12/25 10:05:02;;;;;;;4.22;1.30;;;1.80;91.60;;;;;;5027309;28;20500;-74
2020/12/25 10:07:28;;;;;;;6.88;1.92;;;1.80;91.70;;;;;;5024763;28;20030;-74
2020/12/25 10:09:55;;;;;;;5.07;1.42;;;1.80;91.50;;;;;;5024928;28;20026;-73
2020/12/25 10:12:20;;;;;;;6.90;2.13;;;1.80;91.60;;;;;;5005687;28;20148;-75
2020/12/25 10:14:46;;;;;;;9.02;1.52;;;1.80;91.80;;;;;;5025131;28;20104;-74
2020/12/25 10:17:11;;;;;;;5.63;1.95;;;1.80;92.00;;;;;;5026327;28;20034;-74
2020/12/25 10:19:37;;;;;;;4.68;1.95;;;1.80;92.00;;;;;;5027275;28;20489;-74
2020/12/25 10:22:03;;;;;;;3.55;1.45;;;1.90;91.80;;;;;;5026380;28;20040;-74
2020/12/25 10:24:29;;;;;;;7.60;1.98;;;1.90;91.80;;;;;;5026181;28;20029;-74
2020/12/25 10:26:54;;;;;;;6.97;1.45;;;1.90;92.10;;;;;;5028315;28;20095;-73
2020/12/25 10:29:20;;;;;;;8.90;3.38;;;1.90;91.10;;;;;;5009057;28;20121;-74
2020/12/25 10:31:47;;;;;;;3.38;1.60;;;1.90;91.50;;;;;;5031095;28;20104;-73
2020/12/25 10:34:13;;;;;;;5.28;1.80;;;1.90;91.80;;;;;;5041736;28;20563;-74
2020/12/25 10:36:39;;;;;;;6.95;1.80;;;1.90;91.60;;;;;;5029235;28;20100;-74
2020/12/25 10:39:04;;;;;;;3.60;1.13;;;1.90;90.80;;;;;;5029130;28;20029;-72
2020/12/25 10:41:31;;;;;;;7.35;1.92;;;1.90;91.50;;;;;;5029649;28;20118;-72
2020/12/25 10:43:58;;;;;;;3.97;1.65;;;1.90;91.00;;;;;;5033929;28;20437;-72
2020/12/25 10:46:24;;;;;;;5.60;1.98;;;2.00;91.20;;;;;;5028853;28;20107;-72
2020/12/25 10:48:50;;;;;;;6.30;1.60;;;2.00;90.70;;;;;;5030340;28;20554;-72
2020/12/25 10:51:16;;;;;;;4.07;1.38;;;2.00;91.20;;;;;;5031906;28;20033;-72
2020/12/25 10:53:41;;;;;;;11.55;1.67;;;2.10;90.80;;;;;;5030830;28;20237;-73
2020/12/25 10:56:08;;;;;;;4.38;1.33;;;2.10;91.10;;;;;;5013878;28;20072;-71
2020/12/25 10:58:34;;;;;;;3.60;2.03;;;2.10;90.80;;;;;;5013885;28;20025;-74
2020/12/25 11:00:59;;;;;;;4.97;1.23;;;2.10;90.80;;;;;;5028484;28;20550;-75
2020/12/25 11:03:25;;;;;;;5.57;1.75;;;2.10;90.70;;;;;;5013003;28;20025;-72
2020/12/25 11:05:51;;;;;;;4.70;1.45;;;2.10;91.20;;;;;;5028507;28;20034;-72
2020/12/25 11:08:16;;;;;;;4.72;1.40;;;2.10;90.90;;;;;;5029041;28;20025;-73
2020/12/25 11:10:44;;;;;;;4.88;1.35;;;2.20;90.70;;;;;;5027007;28;20488;-73
2020/12/25 11:13:10;;;;;;;4.80;1.75;;;2.20;90.80;;;;;;5030589;28;20528;-71
2020/12/25 11:15:39;;;;;;;8.40;2.10;;;2.20;90.80;;;;;;5032010;28;20037;-72
2020/12/25 11:18:04;;;;;;;3.33;1.10;;;2.20;91.10;;;;;;5030026;28;20778;-75
2020/12/25 11:20:30;;;;;;;7.00;1.65;;;2.20;90.80;;;;;;5025953;28;20033;-75
2020/12/25 11:22:55;;;;;;;5.13;1.88;;;2.30;90.70;;;;;;5029507;28;20025;-74
2020/12/25 11:25:21;;;;;;;2.50;1.17;;;2.30;90.50;;;;;;5029147;28;20026;-74
2020/12/25 11:27:47;;;;;;;7.80;2.40;;;2.30;90.90;;;;;;5031176;28;20029;-73
2020/12/25 11:30:12;;;;;;;4.75;1.50;;;2.30;90.70;;;;;;5030404;28;20121;-72
2020/12/25 11:32:38;;;;;;;8.10;1.30;;;2.30;90.70;;;;;;5030059;28;20108;-74
2020/12/25 11:35:04;;;;;;;7.53;1.70;;;2.30;90.20;;;;;;5012798;28;20025;-72
2020/12/25 11:37:30;;;;;;;3.35;1.25;;;2.30;90.40;;;;;;5028450;28;20036;-74
2020/12/25 11:39:56;;;;;;;6.30;1.60;;;2.30;90.10;;;;;;5028491;28;20553;-74
2020/12/25 11:42:21;;;;;;;5.40;1.55;;;2.40;90.60;;;;;;5031134;28;20108;-72
2020/12/25 11:44:47;;;;;;;3.35;1.08;;;2.40;90.20;;;;;;5013038;28;20080;-72
2020/12/25 11:47:13;;;;;;;4.60;1.38;;;2.40;90.10;;;;;;5012789;28;20032;-72
2020/12/25 11:49:39;;;;;;;4.25;1.40;;;2.40;88.70;;;;;;5029262;28;20029;-72
2020/12/25 11:52:04;;;;;;;7.20;1.83;;;2.50;87.90;;;;;;5029801;28;20464;-74
2020/12/25 11:54:30;;;;;;;2.60;1.20;;;2.50;88.70;;;;;;5011364;28;20409;-72
2020/12/25 11:56:55;;;;;;;6.13;1.67;;;2.50;90.40;;;;;;5030238;28;20053;-72
2020/12/25 11:59:21;;;;;;;4.97;1.48;;;2.50;89.80;;;;;;5011702;28;20052;-72
2020/12/25 12:01:47;;;;;;;6.75;1.25;;;2.50;88.60;;;;;;5024257;28;20041;-74
2020/12/25 12:04:13;;;;;;;5.30;1.20;;;2.50;88.90;;;;;;5027228;28;20421;-73
2020/12/25 12:06:39;;;;;;;5.25;1.23;;;2.50;89.40;;;;;;5027376;28;20557;-74
2020/12/25 12:09:04;;;;;;;3.45;0.98;;;2.50;89.00;;;;;;5029604;28;20033;-71
2020/12/25 12:11:30;;;;;;;7.70;1.73;;;2.50;89.40;;;;;;5011226;28;20035;-72
2020/12/25 12:13:56;;;;;;;2.72;1.20;;;2.50;89.20;;;;;;5030964;28;20508;-72
2020/12/25 12:16:22;;;;;;;7.45;1.38;;;2.50;89.10;;;;;;5010847;28;20034;-73
2020/12/25 12:18:52;;;;;;;6.07;1.50;;;2.50;88.40;;;;;;5026597;28;20029;-72
2020/12/25 12:21:18;;;;;;;3.10;1.10;;;2.50;89.30;;;;;;5012546;28;20712;-72
2020/12/25 12:23:44;;;;;;;3.42;1.10;;;2.50;90.10;;;;;;5013116;28;20076;-72
2020/12/25 12:26:10;;;;;;;6.05;1.48;;;2.60;89.80;;;;;;5029555;28;20029;-72
2020/12/25 12:28:36;;;;;;;3.88;0.95;;;2.60;90.10;;;;;;5028924;28;20018;-73
2020/12/25 12:31:02;;;;;;;2.95;1.00;;;2.60;87.80;;;;;;5028140;28;20103;-72
2020/12/25 12:33:28;;;;;;;4.88;1.10;;;2.60;88.80;;;;;;5027947;28;20508;-72
2020/12/25 12:35:54;;;;;;;4.53;1.33;;;2.60;89.20;;;;;;5030624;28;20101;-72
2020/12/25 12:38:19;;;;;;;3.25;1.33;;;2.60;88.30;;;;;;5030432;28;20419;-73
2020/12/25 12:40:45;;;;;;;10.27;1.40;;;2.60;89.20;;;;;;5027556;28;20029;-72
2020/12/25 12:43:11;;;;;;;5.20;1.75;;;2.60;89.40;;;;;;5028995;28;20040;-72
2020/12/25 12:45:36;;;;;;;4.55;1.05;;;2.60;90.00;;;;;;5028785;28;20112;-71
2020/12/25 12:48:03;;;;;;;6.22;0.93;;;2.60;87.20;;;;;;5031513;28;20105;-72
2020/12/25 12:50:29;;;;;;;6.90;1.20;;;2.70;86.30;;;;;;5027742;28;20068;-72
2020/12/25 12:52:54;;;;;;;3.40;1.02;;;2.70;87.10;;;;;;5010486;28;20025;-72
2020/12/25 12:55:20;;;;;;;4.35;1.00;;;2.70;86.90;;;;;;5029220;28;20113;-72
2020/12/25 12:57:46;;;;;;;6.22;1.40;;;2.70;87.60;;;;;;5029170;28;20473;-72
2020/12/25 13:00:11;;;;;;;4.43;1.50;;;2.80;87.20;;;;;;5011728;28;20013;-74
2020/12/25 13:02:37;;;;;;;2.75;1.10;;;2.80;88.30;;;;;;5028149;28;20041;-72
2020/12/25 13:05:03;;;;;;;5.07;1.17;;;2.70;88.90;;;;;;5028883;28;20453;-72